Portada
METAR-TAF:

METAR-TAF

Aeropuertos :

West Memphis, Arkansas, Estados Unidos

latitud: 35-08N, longitud: 090-14W, altitud: 65 m

Observación

El informe se hizo hace 50 minutos, a las 22:53 UTC
Viento 3 kt del oeste-noroeste
Temperatura 9°C
Humedad 81%
Presión 1012 hPa
Visibilidad: 16.1 km
Cielo cubierto a una altura de 3100 ft

METAR: KAWM 142253Z AUTO 29003KT 10SM OVC031 09/06 A2988 RMK AO2 PRESRR SLP120 T00940056 $

Hora: 17:43 (23:43 UTC)


TAF: falta

Observaciones y pronósticos meteorológicos de más de 4000 aeropuertos (mensajes METAR y TAF).

Los puntos amarillos y rojos representan las estaciones disponibles.

Ponga el ratón en el punto deseado para ver el nombre de la estación.

Haga clic para ver las observaciones y los pronósticos meteorológicos.

Para cambiar el mapa : haga clic en los botones verdes con una cruz de color negro para hacer un zoom, en el botón verde con un guión para alejar o en las flechas verdes para mapas adyacentes.


METAR-TAF: